createdAt,value
2022-11-04T00:00:52.328Z,1.50
2022-11-04T00:03:21.694Z,1.50
2022-11-04T00:05:50.979Z,2.00
2022-11-04T00:08:26.037Z,1.25
2022-11-04T00:11:17.287Z,1.25
2022-11-04T00:13:47.650Z,0.00
2022-11-04T00:16:34.764Z,2.50
2022-11-04T00:19:04.715Z,2.25
2022-11-04T00:21:52.078Z,1.00
2022-11-04T00:24:39.959Z,1.00
2022-11-04T00:27:31.500Z,1.75
2022-11-04T00:30:01.456Z,0.25
2022-11-04T00:32:48.829Z,5.25
2022-11-04T00:35:18.479Z,3.00
2022-11-04T00:37:47.920Z,1.50
2022-11-04T00:40:18.083Z,1.25
2022-11-04T00:42:47.928Z,1.00
2022-11-04T00:45:17.509Z,2.75
2022-11-04T00:47:46.814Z,2.00
2022-11-04T00:50:16.337Z,3.00
2022-11-04T00:52:45.872Z,1.00
2022-11-04T00:55:15.147Z,3.00
2022-11-04T00:57:44.595Z,3.50
2022-11-04T01:00:14.397Z,2.50
2022-11-04T01:02:43.988Z,4.00
2022-11-04T01:05:13.486Z,2.25
2022-11-04T01:07:43.853Z,1.00
2022-11-04T01:10:14.528Z,1.75
2022-11-04T01:12:44.146Z,1.00
2022-11-04T01:15:14.091Z,3.00
2022-11-04T01:17:43.615Z,3.00
2022-11-04T01:20:14.763Z,3.50
2022-11-04T01:22:44.351Z,1.25
2022-11-04T01:25:13.673Z,2.00
2022-11-04T01:27:43.129Z,3.75
2022-11-04T01:30:12.797Z,3.00
2022-11-04T01:32:42.264Z,3.00
2022-11-04T01:35:11.860Z,5.00
2022-11-04T01:37:41.175Z,2.75
2022-11-04T01:40:11.298Z,4.50
2022-11-04T01:42:40.593Z,4.00
2022-11-04T01:45:17.577Z,4.00
2022-11-04T01:47:52.268Z,2.25
2022-11-04T01:50:26.911Z,1.25
2022-11-04T01:52:56.731Z,4.00
2022-11-04T01:55:28.450Z,2.25
2022-11-04T01:58:02.922Z,2.75
2022-11-04T02:00:32.757Z,1.50
2022-11-04T02:03:08.177Z,2.00
2022-11-04T02:05:38.086Z,1.00
2022-11-04T02:08:08.818Z,1.25
2022-11-04T02:10:38.982Z,2.00
2022-11-04T02:13:08.962Z,1.25
2022-11-04T02:15:46.308Z,1.00
2022-11-04T02:18:17.370Z,2.50
2022-11-04T02:21:02.348Z,2.00
2022-11-04T02:23:50.116Z,1.00
2022-11-04T02:26:37.877Z,2.00
2022-11-04T02:29:08.417Z,1.00
2022-11-04T02:31:44.382Z,5.00
2022-11-04T02:34:15.364Z,1.50
2022-11-04T02:37:00.245Z,2.00
2022-11-04T02:39:36.358Z,2.50
2022-11-04T02:42:21.441Z,2.00
2022-11-04T02:44:53.602Z,1.00
2022-11-04T02:47:25.723Z,2.25
2022-11-04T02:50:02.865Z,0.50
2022-11-04T02:52:43.963Z,2.75
2022-11-04T02:55:19.898Z,1.00
2022-11-04T02:57:51.123Z,1.25
2022-11-04T03:00:24.137Z,2.00
2022-11-04T03:03:05.291Z,1.75
2022-11-04T03:05:37.034Z,0.50
2022-11-04T03:08:16.623Z,3.00
2022-11-04T03:10:53.386Z,2.00
2022-11-04T03:13:27.291Z,1.00
2022-11-04T03:15:59.401Z,2.00
2022-11-04T03:18:33.162Z,2.00
2022-11-04T03:21:04.688Z,1.50
2022-11-04T03:23:34.976Z,1.25
2022-11-04T03:26:11.003Z,4.00
2022-11-04T03:28:48.747Z,1.25
2022-11-04T03:31:25.256Z,1.00
2022-11-04T03:33:56.918Z,1.00
2022-11-04T03:36:26.844Z,1.00
2022-11-04T03:38:56.758Z,1.25
2022-11-04T03:41:43.411Z,0.75
2022-11-04T03:44:13.315Z,1.00
2022-11-04T03:46:42.797Z,1.00
2022-11-04T03:49:13.980Z,1.25
2022-11-04T03:51:46.647Z,2.00
2022-11-04T03:54:17.430Z,1.00
2022-11-04T03:57:04.974Z,0.75
2022-11-04T03:59:43.658Z,1.00
2022-11-04T04:02:12.977Z,0.00
2022-11-04T04:04:47.054Z,1.00
2022-11-04T04:07:16.399Z,0.00
2022-11-04T04:09:48.805Z,2.25
2022-11-04T04:12:29.761Z,0.75
2022-11-04T04:15:04.747Z,1.50
2022-11-04T04:17:45.277Z,1.75
2022-11-04T04:20:17.226Z,1.00
2022-11-04T04:22:55.987Z,1.25
2022-11-04T04:25:45.482Z,1.00
2022-11-04T04:28:16.940Z,0.00
2022-11-04T04:30:47.219Z,1.50
2022-11-04T04:33:20.815Z,2.00
2022-11-04T04:35:56.109Z,0.75
2022-11-04T04:38:46.159Z,1.00
2022-11-04T04:41:37.669Z,1.00
2022-11-04T04:44:33.110Z,1.00
2022-11-04T04:47:04.700Z,0.75
2022-11-04T04:49:36.507Z,1.25
2022-11-04T04:52:08.707Z,1.00
2022-11-04T04:54:38.416Z,2.00
2022-11-04T04:57:07.843Z,0.25
2022-11-04T04:59:37.172Z,0.25
2022-11-04T05:02:06.679Z,1.75
2022-11-04T05:04:36.106Z,0.25
2022-11-04T05:07:05.402Z,1.50
2022-11-04T05:09:34.738Z,0.00
2022-11-04T05:12:04.333Z,0.00
2022-11-04T05:14:33.823Z,1.25
2022-11-04T05:17:03.403Z,1.50
2022-11-04T05:19:32.771Z,0.00
2022-11-04T05:22:02.125Z,0.50
2022-11-04T05:24:31.591Z,2.00
2022-11-04T05:27:01.554Z,0.25
2022-11-04T05:29:31.289Z,0.50
2022-11-04T05:32:00.653Z,0.75
2022-11-04T05:34:30.316Z,0.75
2022-11-04T05:37:01.614Z,1.50
2022-11-04T05:39:31.189Z,2.00
2022-11-04T05:42:00.830Z,1.75
2022-11-04T05:44:30.897Z,1.00
2022-11-04T05:47:00.424Z,0.75
2022-11-04T05:49:30.141Z,1.00
2022-11-04T05:51:59.469Z,1.25
2022-11-04T05:54:29.253Z,0.75
2022-11-04T05:56:58.655Z,2.00
2022-11-04T05:59:29.145Z,0.75
2022-11-04T06:01:58.841Z,1.00
2022-11-04T06:04:28.335Z,1.00
2022-11-04T06:06:57.738Z,0.75
2022-11-04T06:09:40.459Z,1.00
2022-11-04T06:12:18.061Z,2.75
2022-11-04T06:14:48.610Z,1.50
2022-11-04T06:17:19.132Z,1.75
2022-11-04T06:19:49.347Z,2.00
2022-11-04T06:22:20.385Z,0.00
2022-11-04T06:24:50.367Z,1.75
2022-11-04T06:27:20.360Z,1.00
2022-11-04T06:29:49.905Z,0.00
2022-11-04T06:32:19.934Z,1.75
2022-11-04T06:34:51.362Z,0.75
2022-11-04T06:37:22.016Z,0.75
2022-11-04T06:39:51.907Z,1.50
2022-11-04T06:42:21.504Z,1.50
2022-11-04T06:44:52.513Z,0.00
2022-11-04T06:47:24.991Z,0.75
2022-11-04T06:49:55.888Z,0.00
2022-11-04T06:52:26.055Z,1.00
2022-11-04T06:54:56.597Z,0.75
2022-11-04T06:57:26.571Z,1.00
2022-11-04T06:59:56.106Z,1.25
2022-11-04T07:02:26.762Z,1.25
2022-11-04T07:07:31.074Z,0.25
2022-11-04T07:10:01.223Z,0.00
2022-11-04T07:12:32.095Z,0.75
2022-11-04T07:15:01.841Z,0.25
2022-11-04T07:17:31.323Z,0.75
2022-11-04T07:20:01.094Z,0.00
2022-11-04T07:22:30.779Z,0.75
2022-11-04T07:25:01.129Z,0.00
2022-11-04T07:27:31.039Z,0.00
2022-11-04T07:30:00.605Z,0.75
2022-11-04T07:32:31.220Z,0.25
2022-11-04T07:35:01.889Z,0.00
2022-11-04T07:37:31.268Z,0.00
2022-11-04T07:40:01.223Z,0.00
2022-11-04T07:42:30.559Z,0.00
2022-11-04T07:45:08.072Z,0.00
2022-11-04T07:47:37.759Z,0.75
2022-11-04T07:50:10.955Z,0.00
2022-11-04T07:52:41.065Z,0.00
2022-11-04T07:55:11.493Z,0.00
2022-11-04T07:57:40.869Z,0.00
2022-11-04T08:00:10.677Z,0.00
2022-11-04T08:02:43.600Z,0.00
2022-11-04T08:05:13.266Z,0.25
2022-11-04T08:07:43.312Z,0.00
2022-11-04T08:10:12.788Z,0.50
2022-11-04T08:12:43.127Z,0.25
2022-11-04T08:15:12.888Z,0.00
2022-11-04T08:17:42.227Z,0.25
2022-11-04T08:20:11.937Z,0.00
2022-11-04T08:22:41.296Z,0.00
2022-11-04T08:25:14.113Z,0.00
2022-11-04T08:27:44.634Z,0.00
2022-11-04T08:30:14.440Z,0.00
2022-11-04T08:32:43.729Z,0.00
2022-11-04T08:35:13.220Z,0.25
2022-11-04T08:37:42.942Z,0.00
2022-11-04T08:40:12.468Z,0.00
2022-11-04T08:42:42.054Z,0.25
2022-11-04T08:45:11.511Z,0.00
2022-11-04T08:47:41.399Z,0.00
2022-11-04T08:50:11.001Z,0.00
2022-11-04T08:52:41.082Z,0.00
2022-11-04T08:55:11.211Z,0.00
2022-11-04T08:57:40.772Z,0.00
2022-11-04T09:00:10.750Z,0.00
2022-11-04T09:02:41.591Z,0.00
2022-11-04T09:05:11.928Z,0.00
2022-11-04T09:07:41.309Z,0.00
2022-11-04T09:10:11.512Z,0.00
2022-11-04T09:12:40.819Z,0.00
2022-11-04T09:15:10.464Z,0.00
2022-11-04T09:17:39.913Z,1.00
2022-11-04T09:20:09.617Z,1.00
2022-11-04T09:22:43.136Z,0.25
2022-11-04T09:25:15.061Z,0.00
2022-11-04T09:27:44.540Z,0.00
2022-11-04T09:30:15.195Z,0.25
2022-11-04T09:32:46.468Z,1.75
2022-11-04T09:35:19.615Z,0.75
2022-11-04T09:37:48.957Z,0.00
2022-11-04T09:40:22.835Z,0.25
2022-11-04T09:43:09.447Z,0.00
2022-11-04T09:45:41.595Z,0.00
2022-11-04T09:48:17.600Z,0.00
2022-11-04T09:50:53.041Z,0.00
2022-11-04T09:53:28.794Z,0.25
2022-11-04T09:56:03.560Z,0.00
2022-11-04T09:58:36.851Z,0.75
2022-11-04T10:01:29.387Z,7.25
2022-11-04T10:04:13.876Z,8.75
2022-11-04T10:06:46.130Z,11.25
2022-11-04T10:09:24.883Z,11.00
2022-11-04T10:12:11.959Z,7.00
2022-11-04T10:14:59.566Z,7.50
2022-11-04T10:17:46.542Z,6.00
2022-11-04T10:20:33.370Z,5.75
2022-11-04T10:23:26.479Z,8.00
2022-11-04T10:26:03.090Z,7.25
2022-11-04T10:28:37.456Z,5.75
2022-11-04T10:31:07.573Z,5.00
2022-11-04T10:33:39.415Z,8.50
2022-11-04T10:36:11.212Z,5.25
2022-11-04T10:38:52.560Z,4.75
2022-11-04T10:41:32.095Z,5.50
2022-11-04T10:44:02.056Z,8.25
2022-11-04T10:46:50.765Z,7.50
2022-11-04T10:49:39.095Z,5.00
2022-11-04T10:52:09.373Z,10.25
2022-11-04T10:54:47.077Z,8.75
2022-11-04T10:57:24.478Z,7.75
2022-11-04T10:59:54.191Z,7.50
2022-11-04T11:02:39.124Z,7.50
2022-11-04T11:05:16.457Z,7.00
2022-11-04T11:07:50.774Z,11.50
2022-11-04T12:09:51.259Z,20.75
2022-11-04T12:12:25.203Z,20.75
2022-11-04T12:15:07.832Z,17.25
2022-11-04T12:17:40.745Z,18.25
2022-11-04T12:31:57.493Z,12.75
2022-11-04T12:34:27.275Z,13.75
2022-11-04T12:37:14.944Z,13.75
2022-11-04T12:39:55.601Z,13.00
2022-11-04T12:42:44.067Z,10.25
2022-11-04T12:45:26.557Z,13.75
2022-11-04T12:48:02.019Z,12.25
2022-11-04T12:50:35.204Z,12.00
2022-11-04T12:53:22.323Z,10.00
2022-11-04T12:55:52.522Z,11.25
2022-11-04T12:58:28.516Z,14.00
2022-11-04T13:01:05.074Z,11.00
2022-11-04T13:03:39.069Z,10.75
2022-11-04T13:06:19.614Z,9.50
2022-11-04T13:08:55.765Z,10.75
2022-11-04T13:11:31.400Z,10.00
2022-11-04T13:14:11.772Z,12.25
2022-11-04T13:16:47.943Z,11.00
2022-11-04T13:19:25.783Z,10.00
2022-11-04T13:21:56.315Z,11.50
2022-11-04T13:24:33.827Z,8.50
2022-11-04T13:27:06.496Z,8.50
2022-11-04T13:29:41.867Z,8.50
2022-11-04T13:32:15.055Z,8.50
2022-11-04T13:34:54.391Z,11.00
2022-11-04T13:37:33.169Z,8.50
2022-11-04T13:40:15.465Z,9.25
2022-11-04T13:43:23.099Z,8.25
2022-11-04T13:45:58.037Z,7.50
2022-11-04T13:48:30.200Z,8.75
2022-11-04T13:51:11.781Z,10.75
2022-11-04T13:53:47.056Z,13.75
2022-11-04T13:56:34.266Z,9.25
2022-11-04T13:59:04.887Z,8.50
2022-11-04T14:01:37.236Z,7.50
2022-11-04T14:04:18.144Z,8.50
2022-11-04T14:07:10.029Z,9.75
2022-11-04T14:09:48.714Z,7.75
2022-11-04T14:12:20.260Z,6.75
2022-11-04T14:14:50.907Z,5.75
2022-11-04T14:17:36.235Z,7.75
2022-11-04T14:20:13.868Z,7.25
2022-11-04T14:22:46.835Z,6.75
2022-11-04T14:25:23.405Z,7.00
2022-11-04T14:28:03.593Z,8.50
2022-11-04T14:30:36.134Z,4.75
2022-11-04T14:33:19.915Z,6.50
2022-11-04T14:35:49.984Z,6.50
2022-11-04T14:38:38.122Z,5.00
2022-11-04T14:41:16.799Z,5.25
2022-11-04T14:43:53.346Z,4.75
2022-11-04T14:46:35.220Z,2.00
2022-11-04T14:49:06.650Z,4.25
2022-11-04T14:51:42.372Z,3.75
2022-11-04T14:54:21.951Z,3.00
2022-11-04T14:56:52.465Z,4.75
2022-11-04T14:59:28.951Z,3.50
2022-11-04T15:01:59.737Z,4.00
2022-11-04T15:04:32.397Z,3.50
2022-11-04T15:07:03.738Z,3.25
2022-11-04T15:09:41.986Z,5.75
2022-11-04T15:12:29.870Z,4.25
2022-11-04T15:15:01.847Z,7.50
2022-11-04T15:17:33.897Z,7.75
2022-11-04T15:20:06.205Z,5.75
2022-11-04T15:22:36.548Z,5.75
2022-11-04T15:25:07.414Z,6.25
2022-11-04T15:27:39.651Z,6.00
2022-11-04T15:30:21.357Z,6.00
2022-11-04T15:33:02.596Z,7.00
2022-11-04T15:35:35.519Z,6.25
2022-11-04T15:38:05.743Z,5.00
2022-11-04T15:40:36.944Z,3.50
2022-11-04T15:43:08.509Z,6.50
2022-11-04T15:45:57.657Z,6.25
2022-11-04T15:48:29.749Z,2.00
2022-11-04T15:51:13.022Z,8.00
2022-11-04T15:54:08.885Z,5.25
2022-11-04T15:56:44.467Z,5.25
2022-11-04T15:59:19.158Z,5.25
2022-11-04T16:01:51.758Z,3.25
2022-11-04T16:04:23.928Z,3.50
2022-11-04T16:07:24.131Z,4.25
2022-11-04T16:09:55.808Z,6.00
2022-11-04T16:12:28.469Z,3.00
2022-11-04T16:15:00.220Z,5.25
2022-11-04T16:17:31.714Z,4.50
2022-11-04T16:20:04.267Z,3.50
2022-11-04T16:22:40.513Z,5.00
2022-11-04T16:25:22.049Z,4.75
2022-11-04T16:27:53.687Z,7.00
2022-11-04T16:30:26.415Z,7.50
2022-11-04T16:32:57.786Z,6.00
2022-11-04T16:35:29.193Z,7.00
2022-11-04T16:38:02.730Z,6.25
2022-11-04T16:40:36.414Z,4.75
2022-11-04T16:43:06.604Z,9.50
2022-11-04T16:45:38.486Z,5.00
2022-11-04T16:48:09.570Z,7.50
2022-11-04T16:50:40.472Z,5.75
2022-11-04T16:53:10.724Z,6.25
2022-11-04T16:55:45.111Z,6.00
2022-11-04T16:58:21.250Z,6.75
2022-11-04T17:00:51.908Z,5.00
2022-11-04T17:03:25.791Z,8.50
2022-11-04T17:05:58.357Z,3.50
2022-11-04T17:08:28.542Z,6.75
2022-11-04T17:10:58.824Z,7.50
2022-11-04T17:13:32.108Z,6.00
2022-11-04T17:16:06.374Z,4.50
2022-11-04T17:18:36.244Z,4.25
2022-11-04T17:21:09.613Z,4.75
2022-11-04T17:23:39.124Z,3.75
2022-11-04T17:26:08.516Z,4.25
2022-11-04T17:28:37.928Z,3.75
2022-11-04T17:31:07.466Z,5.00
2022-11-04T17:33:36.919Z,7.00
2022-11-04T17:36:07.834Z,4.75
2022-11-04T17:38:37.329Z,6.75
2022-11-04T17:41:24.714Z,5.25
2022-11-04T17:44:03.469Z,5.25
2022-11-04T17:46:36.822Z,3.75
2022-11-04T17:49:19.914Z,5.00
2022-11-04T17:51:50.637Z,3.00
2022-11-04T17:54:20.909Z,3.50
2022-11-04T17:56:50.746Z,4.75
2022-11-04T17:59:20.421Z,7.00
2022-11-04T18:01:50.194Z,3.75
2022-11-04T18:04:20.866Z,4.75
2022-11-04T18:06:50.752Z,5.25
2022-11-04T18:09:20.475Z,4.50
2022-11-04T18:12:08.164Z,7.50
2022-11-04T18:14:37.997Z,5.00
2022-11-04T18:17:07.535Z,4.00
2022-11-04T18:19:37.183Z,3.75
2022-11-04T18:22:06.446Z,4.00
2022-11-04T18:24:35.933Z,5.25
2022-11-04T18:27:05.336Z,5.75
2022-11-04T18:29:35.013Z,7.50
2022-11-04T18:32:04.345Z,3.50
2022-11-04T18:34:33.869Z,7.00
2022-11-04T18:37:04.174Z,5.75
2022-11-04T18:39:33.678Z,4.50
2022-11-04T18:42:03.088Z,5.50
2022-11-04T18:44:32.678Z,3.00
2022-11-04T18:47:02.199Z,4.00
2022-11-04T18:49:31.613Z,4.75
2022-11-04T18:52:01.506Z,5.00
2022-11-04T18:54:30.891Z,7.00
2022-11-04T18:57:00.231Z,3.00
2022-11-04T18:59:29.524Z,2.75
2022-11-04T19:01:59.044Z,4.00
2022-11-04T19:04:28.687Z,4.75
2022-11-04T19:06:58.165Z,4.50
2022-11-04T19:12:36.506Z,3.75
2022-11-04T19:15:06.373Z,5.00
2022-11-04T19:17:37.599Z,3.00
2022-11-04T19:20:12.193Z,4.00
2022-11-04T19:22:43.219Z,5.25
2022-11-04T19:25:13.065Z,4.00
2022-11-04T19:27:42.550Z,5.75
2022-11-04T19:30:12.278Z,5.25
2022-11-04T19:32:41.719Z,4.00
2022-11-04T19:35:11.132Z,6.50
2022-11-04T19:37:40.540Z,6.25
2022-11-04T19:40:13.205Z,5.25
2022-11-04T19:43:00.950Z,5.25
2022-11-04T19:45:30.876Z,4.00
2022-11-04T19:48:00.203Z,5.75
2022-11-04T19:50:30.471Z,4.25
2022-11-04T19:53:03.163Z,4.75
2022-11-04T19:55:33.681Z,3.75
2022-11-04T19:58:03.345Z,4.50
2022-11-04T20:00:33.479Z,5.25
2022-11-04T20:03:02.982Z,4.50
2022-11-04T20:05:32.469Z,6.00
2022-11-04T20:08:06.457Z,4.25
2022-11-04T20:10:44.315Z,3.50
2022-11-04T20:13:36.233Z,5.50
2022-11-04T20:16:13.566Z,7.00
2022-11-04T20:18:43.646Z,5.25
2022-11-04T20:21:12.962Z,5.50
2022-11-04T20:23:42.865Z,5.50
2022-11-04T20:26:20.478Z,3.50
2022-11-04T20:28:50.469Z,5.00
2022-11-04T20:31:21.215Z,4.00
2022-11-04T20:33:51.202Z,4.00
2022-11-04T20:36:22.092Z,6.25
2022-11-04T20:38:51.940Z,3.25
2022-11-04T20:41:21.267Z,6.50
2022-11-04T20:43:50.973Z,5.00
2022-11-04T20:46:22.034Z,5.00
2022-11-04T20:48:51.623Z,4.50
2022-11-04T20:51:25.267Z,5.50
2022-11-04T20:53:57.278Z,4.25
2022-11-04T20:56:27.317Z,5.25
2022-11-04T20:58:59.591Z,3.50
2022-11-04T21:01:37.023Z,4.00
2022-11-04T21:04:07.609Z,5.00
2022-11-04T21:06:41.085Z,5.25
2022-11-04T21:09:11.971Z,3.25
2022-11-04T21:11:41.793Z,3.75
2022-11-04T21:14:15.103Z,4.75
2022-11-04T21:16:45.082Z,5.00
2022-11-04T21:19:16.670Z,3.00
2022-11-04T21:21:48.045Z,5.50
2022-11-04T21:24:18.198Z,5.00
2022-11-04T21:26:47.964Z,5.25
2022-11-04T21:29:18.640Z,5.50
2022-11-04T21:31:48.739Z,5.00
2022-11-04T21:34:18.350Z,4.00
2022-11-04T21:36:47.655Z,5.00
2022-11-04T21:39:16.999Z,3.25
2022-11-04T21:41:46.450Z,5.50
2022-11-04T21:44:15.974Z,5.00
2022-11-04T21:46:45.364Z,4.00
2022-11-04T21:49:14.848Z,1.25
2022-11-04T21:51:45.022Z,5.00
2022-11-04T21:54:14.498Z,5.25
2022-11-04T21:56:43.823Z,6.75
2022-11-04T21:59:18.107Z,3.25
2022-11-04T22:01:48.281Z,4.25
2022-11-04T22:04:17.916Z,5.50
2022-11-04T22:06:48.273Z,4.50
2022-11-04T22:09:17.997Z,4.00
2022-11-04T22:11:47.486Z,4.00
2022-11-04T22:14:16.955Z,6.00
2022-11-04T22:16:46.266Z,4.00
2022-11-04T22:19:15.869Z,5.25
2022-11-04T22:21:46.571Z,4.75
2022-11-04T22:24:17.694Z,2.00
2022-11-04T22:26:48.925Z,3.50
2022-11-04T22:29:18.600Z,4.00
2022-11-04T22:31:48.064Z,4.50
2022-11-04T22:34:17.633Z,3.00
2022-11-04T22:36:47.096Z,5.25
2022-11-04T22:39:17.152Z,3.75
2022-11-04T22:41:47.665Z,3.00
2022-11-04T22:44:17.000Z,4.00
2022-11-04T22:46:46.473Z,5.50
2022-11-04T22:49:16.104Z,4.25
2022-11-04T22:51:45.442Z,2.75
2022-11-04T22:54:14.797Z,3.00
2022-11-04T22:56:44.066Z,2.00
2022-11-04T22:59:13.694Z,3.75
2022-11-04T23:01:43.224Z,2.25
2022-11-04T23:04:13.648Z,5.25
2022-11-04T23:06:43.270Z,2.50
2022-11-04T23:09:14.279Z,2.25
2022-11-04T23:12:01.737Z,4.75
2022-11-04T23:14:48.950Z,3.25
2022-11-04T23:17:38.487Z,3.00
2022-11-04T23:20:09.987Z,3.25
2022-11-04T23:22:57.517Z,2.75
2022-11-04T23:25:27.174Z,3.00
2022-11-04T23:28:15.132Z,2.50
2022-11-04T23:30:47.658Z,4.50
2022-11-04T23:33:17.101Z,2.75
2022-11-04T23:36:06.145Z,3.00
2022-11-04T23:38:36.739Z,3.25
2022-11-04T23:41:27.360Z,4.00
2022-11-04T23:43:56.636Z,2.50
2022-11-04T23:46:44.101Z,1.25
2022-11-04T23:49:31.876Z,2.75
2022-11-04T23:52:19.239Z,5.00
2022-11-04T23:55:06.559Z,2.25
2022-11-04T23:57:54.056Z,2.75
